Evening Star — WDG5061 — position and weather

sailwx.info

Track history (hours):
 
Tides and Currents Weather Stations Pressure Air Temp Water Temp Dewpoint Dewpoint Depression Visibility Wind Speed Wind Dir Waves Ship Positions

Evening Star

Owner: Tug Evening Star Corp, Melville, NY. More information available from US FCC via Universal Licensing System and Coast Guard Vessel Documentation Center.

Last reported at 2018-Jan-21 04:30 UTC. Time now 2018-Jan-21 05:00 UTC.
Position N 40°39' W 074°02'.

Length 34 m; draft 5.5 m.

Type: Towing. MMSI: 366834000.

Date/timePositionNaut miles runAvg speedWind from/ knotsBaromVisibWave heightAir tempDewpointWater temp
2018-Jan-21 04:30N 40°39' W 074°02'0 0.0
2018-Jan-21 04:01N 40°39' W 074°02'0 0.0
2018-Jan-21 03:31N 40°39' W 074°02'0 0.0
2018-Jan-21 03:00N 40°39' W 074°02'0 0.0
2018-Jan-21 02:30N 40°39' W 074°02'0 0.0
2018-Jan-21 02:00N 40°39' W 074°02'0 0.0
2018-Jan-21 01:31N 40°39' W 074°02'0 0.1
2018-Jan-21 01:00N 40°39' W 074°02'0 0.2
2018-Jan-21 00:30N 40°39' W 074°02'0 0.0
2018-Jan-21 00:00N 40°39' W 074°02'0 0.0
2018-Jan-20 23:31N 40°39' W 074°02'0 0.0
2018-Jan-20 23:00N 40°39' W 074°02'0 0.1
2018-Jan-20 22:30N 40°39' W 074°02'0 0.0
2018-Jan-20 22:00N 40°39' W 074°02'0 0.0
2018-Jan-20 21:31N 40°39' W 074°02'2 5.0
2018-Jan-20 21:00N 40°39' W 074°06'1 2.3
2018-Jan-20 20:30N 40°39' W 074°07'0 0.0
2018-Jan-20 20:00N 40°39' W 074°07'0 0.0
2018-Jan-20 19:30N 40°39' W 074°07'0 0.0
2018-Jan-20 19:00N 40°39' W 074°07'0 0.5
2018-Jan-20 18:30N 40°39' W 074°07'0 0.3
2018-Jan-20 18:00N 40°39' W 074°07'4 7.4
2018-Jan-20 17:30N 40°39' W 074°02'1 1.5
2018-Jan-20 17:00N 40°39' W 074°03'3 6.2
2018-Jan-20 16:28N 40°36' W 074°01'0 0.1
2018-Jan-20 16:00N 40°36' W 074°01'0 0.0
2018-Jan-20 15:29N 40°36' W 074°01'0 0.0
2018-Jan-20 15:00N 40°36' W 074°01'0 0.0
2018-Jan-20 14:31N 40°36' W 074°01'0 0.0
2018-Jan-20 14:01N 40°36' W 074°01'0 0.1
2018-Jan-20 13:30N 40°36' W 074°01'0 0.0
2018-Jan-20 13:00N 40°36' W 074°01'0 0.1
2018-Jan-20 12:30N 40°36' W 074°02'0 0.0
2018-Jan-20 12:00N 40°36' W 074°02'0 0.1
2018-Jan-20 11:29N 40°36' W 074°02'0 0.2
2018-Jan-20 11:01N 40°36' W 074°01'0 0.0
2018-Jan-20 10:30N 40°36' W 074°01'0 0.0
2018-Jan-20 10:00N 40°36' W 074°01'0 0.0
2018-Jan-20 09:30N 40°36' W 074°01'0 0.0
2018-Jan-20 09:01N 40°36' W 074°01'0 0.0
2018-Jan-20 08:30N 40°36' W 074°01'0 0.0
2018-Jan-20 08:00N 40°36' W 074°01'0 0.0
2018-Jan-20 07:30N 40°36' W 074°01'0 0.0
2018-Jan-20 07:00N 40°36' W 074°01'0 0.0
2018-Jan-20 06:30N 40°36' W 074°01'0 0.0
2018-Jan-20 06:00N 40°36' W 074°01'0 0.0
2018-Jan-20 05:30N 40°36' W 074°01'0 0.0
2018-Jan-20 05:00N 40°36' W 074°01'0 0.2
2018-Jan-20 04:30N 40°36' W 074°01'0 0.1
2018-Jan-20 04:00N 40°36' W 074°01'0 0.0
2018-Jan-20 03:30N 40°36' W 074°02'0 0.0
2018-Jan-20 03:00N 40°36' W 074°02'0 0.0
2018-Jan-20 02:30N 40°36' W 074°02'0 0.0
2018-Jan-20 02:00N 40°36' W 074°02'0 0.0
2018-Jan-20 01:30N 40°36' W 074°02'0 0.0
2018-Jan-20 00:30N 40°36' W 074°02'0 0.0
2018-Jan-20 00:00N 40°36' W 074°02'0 0.1
2018-Jan-19 23:30N 40°36' W 074°02'0 0.2
2018-Jan-19 23:00N 40°36' W 074°01'0 0.2
2018-Jan-19 22:30N 40°36' W 074°01'0 0.0
2018-Jan-19 22:01N 40°36' W 074°01'0 0.0
2018-Jan-19 21:29N 40°36' W 074°01'0 0.0
2018-Jan-19 20:59N 40°36' W 074°01'0 0.0
2018-Jan-19 20:30N 40°36' W 074°01'0 0.0
2018-Jan-19 20:00N 40°36' W 074°01'0 0.0
2018-Jan-19 19:29N 40°36' W 074°01'0 0.0
2018-Jan-19 19:00N 40°36' W 074°01'0 0.0
2018-Jan-19 18:31N 40°36' W 074°01'0 0.0
2018-Jan-19 18:00N 40°36' W 074°01'0 0.0
2018-Jan-19 17:28N 40°36' W 074°01'0 0.0
2018-Jan-19 17:00N 40°36' W 074°01'0 0.1
2018-Jan-19 16:30N 40°36' W 074°01'0 0.0
2018-Jan-19 15:58N 40°36' W 074°01'0 0.1
2018-Jan-19 15:30N 40°36' W 074°01'0 0.0
2018-Jan-19 15:00N 40°36' W 074°01'0 0.1
2018-Jan-19 14:29N 40°36' W 074°01'0 0.1
2018-Jan-19 14:00N 40°36' W 074°01'0 0.2
2018-Jan-19 13:29N 40°36' W 074°02'2 5.0
2018-Jan-19 13:00N 40°33' W 074°02'185 8.2
2018-Jan-18 14:17N 42°09' W 070°30'3 9.2
2018-Jan-18 14:00N 42°12' W 070°30'5 9.2
2018-Jan-18 13:30N 42°17' W 070°30'5 9.5
2018-Jan-18 13:00N 42°21' W 070°30'5 9.7
2018-Jan-18 12:30N 42°26' W 070°30'5 9.9
2018-Jan-18 12:00N 42°31' W 070°30'510.2
2018-Jan-18 11:30N 42°36' W 070°30'510.2
2018-Jan-18 11:00N 42°41' W 070°29'  
2018-Jan-12 13:37N 42°15' W 070°39'1 9.9
2018-Jan-12 13:30N 42°16' W 070°40'5 9.9
2018-Jan-12 13:01N 42°20' W 070°44'5 9.5
2018-Jan-12 12:30N 42°23' W 070°49'8 8.8
2018-Jan-12 11:36N 42°20' W 070°60'2 9.8
2018-Jan-12 11:26N 42°21' W 071°01'2 3.9
2018-Jan-12 10:53N 42°23' W 071°02'1 1.6
2018-Jan-12 10:30N 42°24' W 071°01'0 0.0
2018-Jan-12 09:53N 42°24' W 071°01'0 0.0
2018-Jan-12 09:28N 42°24' W 071°01'0 0.0
2018-Jan-12 08:55N 42°24' W 071°01'1 0.2
2018-Jan-12 00:03N 42°23' W 071°03'0 0.5
2018-Jan-11 23:42N 42°23' W 071°03'1 5.7
2018-Jan-11 23:29N 42°23' W 071°01'0 0.8
2018-Jan-11 22:58N 42°24' W 071°01'2 2.9
2018-Jan-11 22:26N 42°23' W 071°03'1 2.2
2018-Jan-11 21:59N 42°22' W 071°03'1 1.3
2018-Jan-11 21:26N 42°22' W 071°02'0 0.0
2018-Jan-11 21:00N 42°22' W 071°02'0 0.0
2018-Jan-11 20:29N 42°22' W 071°02'0 0.0
2018-Jan-11 19:58N 42°22' W 071°02'0 0.0
2018-Jan-11 19:31N 42°22' W 071°02'0 0.0
2018-Jan-11 18:59N 42°22' W 071°02'0 0.1
2018-Jan-11 18:30N 42°22' W 071°02'0 0.0
2018-Jan-11 17:49N 42°22' W 071°02'0 0.1
2018-Jan-11 17:30N 42°22' W 071°02'0 0.0
2018-Jan-11 17:00N 42°22' W 071°02'0 0.0
2018-Jan-11 16:30N 42°22' W 071°02'0 0.0
2018-Jan-11 16:00N 42°22' W 071°02'0 0.0
2018-Jan-11 15:28N 42°22' W 071°02'0 0.0
2018-Jan-11 14:56N 42°22' W 071°02'0 0.0
2018-Jan-11 14:29N 42°22' W 071°02'0 0.0
2018-Jan-11 14:01N 42°22' W 071°02'0 0.5
2018-Jan-11 13:28N 42°21' W 071°02'4 8.0
2018-Jan-11 13:01N 42°20' W 070°57'5 8.9
2018-Jan-11 12:30N 42°23' W 070°52'5 9.2
2018-Jan-11 12:01N 42°22' W 070°47'5 9.6
2018-Jan-11 11:31N 42°19' W 070°41'17 9.2
2018-Jan-11 09:38N 42°04' W 070°29'3 9.4
2018-Jan-11 09:21N 42°01' W 070°28'9 9.5
2018-Jan-11 08:27N 41°53' W 070°27'5 9.4
2018-Jan-11 07:57N 41°48' W 070°28'  
Track history (hours):
 
Tides and Currents Weather Stations Pressure Air Temp Water Temp Dewpoint Dewpoint Depression Visibility Wind Speed Wind Dir Waves Ship Positions

Evening Star

Owner: Tug Evening Star Corp, Melville, NY. More information available from US FCC via Universal Licensing System and Coast Guard Vessel Documentation Center.

Last reported at 2018-Jan-21 04:30 UTC. Time now 2018-Jan-21 05:00 UTC.
Position N 40°39' W 074°02'.

Length 34 m; draft 5.5 m.

Type: Towing. MMSI: 366834000.

Date/timePositionNaut miles runAvg speedWind from/ knotsBaromVisibWave heightAir tempDewpointWater temp
2018-Jan-21 04:30N 40°39' W 074°02'0 0.0
2018-Jan-21 04:01N 40°39' W 074°02'0 0.0
2018-Jan-21 03:31N 40°39' W 074°02'0 0.0
2018-Jan-21 03:00N 40°39' W 074°02'0 0.0
2018-Jan-21 02:30N 40°39' W 074°02'0 0.0
2018-Jan-21 02:00N 40°39' W 074°02'0 0.0
2018-Jan-21 01:31N 40°39' W 074°02'0 0.1
2018-Jan-21 01:00N 40°39' W 074°02'0 0.2
2018-Jan-21 00:30N 40°39' W 074°02'0 0.0
2018-Jan-21 00:00N 40°39' W 074°02'0 0.0
2018-Jan-20 23:31N 40°39' W 074°02'0 0.0
2018-Jan-20 23:00N 40°39' W 074°02'0 0.1
2018-Jan-20 22:30N 40°39' W 074°02'0 0.0
2018-Jan-20 22:00N 40°39' W 074°02'0 0.0
2018-Jan-20 21:31N 40°39' W 074°02'2 5.0
2018-Jan-20 21:00N 40°39' W 074°06'1 2.3
2018-Jan-20 20:30N 40°39' W 074°07'0 0.0
2018-Jan-20 20:00N 40°39' W 074°07'0 0.0
2018-Jan-20 19:30N 40°39' W 074°07'0 0.0
2018-Jan-20 19:00N 40°39' W 074°07'0 0.5
2018-Jan-20 18:30N 40°39' W 074°07'0 0.3
2018-Jan-20 18:00N 40°39' W 074°07'4 7.4
2018-Jan-20 17:30N 40°39' W 074°02'1 1.5
2018-Jan-20 17:00N 40°39' W 074°03'3 6.2
2018-Jan-20 16:28N 40°36' W 074°01'0 0.1
2018-Jan-20 16:00N 40°36' W 074°01'0 0.0
2018-Jan-20 15:29N 40°36' W 074°01'0 0.0
2018-Jan-20 15:00N 40°36' W 074°01'0 0.0
2018-Jan-20 14:31N 40°36' W 074°01'0 0.0
2018-Jan-20 14:01N 40°36' W 074°01'0 0.1
2018-Jan-20 13:30N 40°36' W 074°01'0 0.0
2018-Jan-20 13:00N 40°36' W 074°01'0 0.1
2018-Jan-20 12:30N 40°36' W 074°02'0 0.0
2018-Jan-20 12:00N 40°36' W 074°02'0 0.1
2018-Jan-20 11:29N 40°36' W 074°02'0 0.2
2018-Jan-20 11:01N 40°36' W 074°01'0 0.0
2018-Jan-20 10:30N 40°36' W 074°01'0 0.0
2018-Jan-20 10:00N 40°36' W 074°01'0 0.0
2018-Jan-20 09:30N 40°36' W 074°01'0 0.0
2018-Jan-20 09:01N 40°36' W 074°01'0 0.0
2018-Jan-20 08:30N 40°36' W 074°01'0 0.0
2018-Jan-20 08:00N 40°36' W 074°01'0 0.0
2018-Jan-20 07:30N 40°36' W 074°01'0 0.0
2018-Jan-20 07:00N 40°36' W 074°01'0 0.0
2018-Jan-20 06:30N 40°36' W 074°01'0 0.0
2018-Jan-20 06:00N 40°36' W 074°01'0 0.0
2018-Jan-20 05:30N 40°36' W 074°01'0 0.0
2018-Jan-20 05:00N 40°36' W 074°01'0 0.2
2018-Jan-20 04:30N 40°36' W 074°01'0 0.1
2018-Jan-20 04:00N 40°36' W 074°01'0 0.0
2018-Jan-20 03:30N 40°36' W 074°02'0 0.0
2018-Jan-20 03:00N 40°36' W 074°02'0 0.0
2018-Jan-20 02:30N 40°36' W 074°02'0 0.0
2018-Jan-20 02:00N 40°36' W 074°02'0 0.0
2018-Jan-20 01:30N 40°36' W 074°02'0 0.0
2018-Jan-20 00:30N 40°36' W 074°02'0 0.0
2018-Jan-20 00:00N 40°36' W 074°02'0 0.1
2018-Jan-19 23:30N 40°36' W 074°02'0 0.2
2018-Jan-19 23:00N 40°36' W 074°01'0 0.2
2018-Jan-19 22:30N 40°36' W 074°01'0 0.0
2018-Jan-19 22:01N 40°36' W 074°01'0 0.0
2018-Jan-19 21:29N 40°36' W 074°01'0 0.0
2018-Jan-19 20:59N 40°36' W 074°01'0 0.0
2018-Jan-19 20:30N 40°36' W 074°01'0 0.0
2018-Jan-19 20:00N 40°36' W 074°01'0 0.0
2018-Jan-19 19:29N 40°36' W 074°01'0 0.0
2018-Jan-19 19:00N 40°36' W 074°01'0 0.0
2018-Jan-19 18:31N 40°36' W 074°01'0 0.0
2018-Jan-19 18:00N 40°36' W 074°01'0 0.0
2018-Jan-19 17:28N 40°36' W 074°01'0 0.0
2018-Jan-19 17:00N 40°36' W 074°01'0 0.1
2018-Jan-19 16:30N 40°36' W 074°01'0 0.0
2018-Jan-19 15:58N 40°36' W 074°01'0 0.1
2018-Jan-19 15:30N 40°36' W 074°01'0 0.0
2018-Jan-19 15:00N 40°36' W 074°01'0 0.1
2018-Jan-19 14:29N 40°36' W 074°01'0 0.1
2018-Jan-19 14:00N 40°36' W 074°01'0 0.2
2018-Jan-19 13:29N 40°36' W 074°02'2 5.0
2018-Jan-19 13:00N 40°33' W 074°02'185 8.2
2018-Jan-18 14:17N 42°09' W 070°30'3 9.2
2018-Jan-18 14:00N 42°12' W 070°30'5 9.2
2018-Jan-18 13:30N 42°17' W 070°30'5 9.5
2018-Jan-18 13:00N 42°21' W 070°30'5 9.7
2018-Jan-18 12:30N 42°26' W 070°30'5 9.9
2018-Jan-18 12:00N 42°31' W 070°30'510.2
2018-Jan-18 11:30N 42°36' W 070°30'510.2
2018-Jan-18 11:00N 42°41' W 070°29'  
2018-Jan-12 13:37N 42°15' W 070°39'1 9.9
2018-Jan-12 13:30N 42°16' W 070°40'5 9.9
2018-Jan-12 13:01N 42°20' W 070°44'5 9.5
2018-Jan-12 12:30N 42°23' W 070°49'8 8.8
2018-Jan-12 11:36N 42°20' W 070°60'2 9.8
2018-Jan-12 11:26N 42°21' W 071°01'2 3.9
2018-Jan-12 10:53N 42°23' W 071°02'1 1.6
2018-Jan-12 10:30N 42°24' W 071°01'0 0.0
2018-Jan-12 09:53N 42°24' W 071°01'0 0.0
2018-Jan-12 09:28N 42°24' W 071°01'0 0.0
2018-Jan-12 08:55N 42°24' W 071°01'1 0.2
2018-Jan-12 00:03N 42°23' W 071°03'0 0.5
2018-Jan-11 23:42N 42°23' W 071°03'1 5.7
2018-Jan-11 23:29N 42°23' W 071°01'0 0.8
2018-Jan-11 22:58N 42°24' W 071°01'2 2.9
2018-Jan-11 22:26N 42°23' W 071°03'1 2.2
2018-Jan-11 21:59N 42°22' W 071°03'1 1.3
2018-Jan-11 21:26N 42°22' W 071°02'0 0.0
2018-Jan-11 21:00N 42°22' W 071°02'0 0.0
2018-Jan-11 20:29N 42°22' W 071°02'0 0.0
2018-Jan-11 19:58N 42°22' W 071°02'0 0.0
2018-Jan-11 19:31N 42°22' W 071°02'0 0.0
2018-Jan-11 18:59N 42°22' W 071°02'0 0.1
2018-Jan-11 18:30N 42°22' W 071°02'0 0.0
2018-Jan-11 17:49N 42°22' W 071°02'0 0.1
2018-Jan-11 17:30N 42°22' W 071°02'0 0.0
2018-Jan-11 17:00N 42°22' W 071°02'0 0.0
2018-Jan-11 16:30N 42°22' W 071°02'0 0.0
2018-Jan-11 16:00N 42°22' W 071°02'0 0.0
2018-Jan-11 15:28N 42°22' W 071°02'0 0.0
2018-Jan-11 14:56N 42°22' W 071°02'0 0.0
2018-Jan-11 14:29N 42°22' W 071°02'0 0.0
2018-Jan-11 14:01N 42°22' W 071°02'0 0.5
2018-Jan-11 13:28N 42°21' W 071°02'4 8.0
2018-Jan-11 13:01N 42°20' W 070°57'5 8.9
2018-Jan-11 12:30N 42°23' W 070°52'5 9.2
2018-Jan-11 12:01N 42°22' W 070°47'5 9.6
2018-Jan-11 11:31N 42°19' W 070°41'17 9.2
2018-Jan-11 09:38N 42°04' W 070°29'3 9.4
2018-Jan-11 09:21N 42°01' W 070°28'9 9.5
2018-Jan-11 08:27N 41°53' W 070°27'5 9.4
2018-Jan-11 07:57N 41°48' W 070°28'  

Dump ship's entire track history